createdAt,value
2018-10-17T00:00:22.914Z,43.70
2018-10-17T00:03:21.089Z,45.07
2018-10-17T00:05:53.642Z,43.60
2018-10-17T00:08:23.463Z,41.27
2018-10-17T00:10:53.249Z,41.90
2018-10-17T00:13:22.356Z,41.33
2018-10-17T00:15:51.717Z,42.83
2018-10-17T00:18:20.842Z,39.00
2018-10-17T00:20:51.054Z,40.03
2018-10-17T00:23:20.550Z,39.60
2018-10-17T00:25:52.177Z,40.73
2018-10-17T00:28:21.535Z,41.53
2018-10-17T00:30:51.143Z,39.97
2018-10-17T00:33:28.294Z,42.10
2018-10-17T00:35:58.492Z,39.70
2018-10-17T00:38:28.092Z,43.93
2018-10-17T00:40:57.767Z,45.20
2018-10-17T00:43:57.034Z,43.10
2018-10-17T00:46:32.213Z,42.30
2018-10-17T00:49:07.280Z,44.60
2018-10-17T00:54:13.325Z,43.60
2018-10-17T00:56:42.767Z,42.73
2018-10-17T00:59:13.487Z,44.77
2018-10-17T01:01:42.557Z,45.07
2018-10-17T01:04:12.125Z,43.23
2018-10-17T01:06:41.422Z,43.60
2018-10-17T01:09:12.827Z,42.07
2018-10-17T01:11:42.314Z,42.67
2018-10-17T01:14:35.778Z,42.93
2018-10-17T01:17:43.240Z,42.80
2018-10-17T01:20:12.758Z,41.30
2018-10-17T01:25:52.042Z,40.63
2018-10-17T01:28:21.961Z,43.30
2018-10-17T01:30:51.628Z,41.40
2018-10-17T01:33:20.759Z,42.10
2018-10-17T01:35:50.807Z,43.10
2018-10-17T01:38:19.949Z,43.47
2018-10-17T01:40:49.037Z,43.23
2018-10-17T01:43:18.636Z,46.10
2018-10-17T01:45:48.178Z,48.03
2018-10-17T01:48:17.547Z,47.77
2018-10-17T01:52:33.017Z,45.00
2018-10-17T01:55:03.095Z,42.40
2018-10-17T01:57:32.580Z,43.63
2018-10-17T02:00:01.815Z,47.10
2018-10-17T02:02:31.317Z,50.00
2018-10-17T02:05:00.564Z,46.83
2018-10-17T02:07:29.753Z,48.30
2018-10-17T02:09:58.901Z,46.00
2018-10-17T02:12:43.279Z,48.80
2018-10-17T02:15:13.153Z,47.10
2018-10-17T02:17:43.883Z,48.40
2018-10-17T02:23:24.782Z,48.48
2018-10-17T02:25:53.834Z,50.50
2018-10-17T02:28:22.944Z,49.50
2018-10-17T02:30:52.350Z,51.00
2018-10-17T02:33:21.501Z,50.90
2018-10-17T02:35:50.963Z,50.20
2018-10-17T02:38:20.155Z,46.97
2018-10-17T02:40:49.509Z,53.47
2018-10-17T02:43:18.759Z,51.93
2018-10-17T02:45:48.243Z,48.53
2018-10-17T02:48:17.274Z,50.57
2018-10-17T02:50:47.290Z,51.90
2018-10-17T02:53:55.403Z,50.93
2018-10-17T02:56:27.831Z,51.07
2018-10-17T02:59:05.125Z,50.80
2018-10-17T03:01:34.410Z,49.03
2018-10-17T03:04:03.801Z,49.37
2018-10-17T03:06:33.228Z,48.57
2018-10-17T03:09:03.390Z,49.70
2018-10-17T03:11:32.575Z,48.20
2018-10-17T03:14:21.838Z,47.20
2018-10-17T03:17:51.775Z,46.70
2018-10-17T03:20:56.570Z,48.00
2018-10-17T03:23:26.102Z,48.57
2018-10-17T03:26:43.546Z,47.77
2018-10-17T03:29:12.792Z,47.47
2018-10-17T03:31:42.339Z,48.77
2018-10-17T03:34:25.950Z,43.90
2018-10-17T03:36:55.451Z,46.90
2018-10-17T03:39:26.804Z,46.67
2018-10-17T03:41:56.452Z,44.10
2018-10-17T03:44:26.245Z,43.97
2018-10-17T03:46:56.762Z,45.63
2018-10-17T03:49:26.132Z,42.90
2018-10-17T03:51:55.153Z,39.87
2018-10-17T03:54:24.189Z,44.17
2018-10-17T03:56:53.286Z,42.27
2018-10-17T03:59:57.653Z,40.40
2018-10-17T04:02:26.803Z,42.97
2018-10-17T04:04:55.887Z,42.50
2018-10-17T04:07:25.971Z,43.20
2018-10-17T04:10:32.651Z,43.00
2018-10-17T04:13:03.571Z,42.90
2018-10-17T04:15:32.898Z,43.30
2018-10-17T04:18:33.034Z,43.60
2018-10-17T04:24:11.664Z,44.20
2018-10-17T04:26:40.732Z,46.80
2018-10-17T04:29:10.696Z,44.90
2018-10-17T04:32:04.198Z,43.47
2018-10-17T04:34:33.385Z,44.07
2018-10-17T04:37:02.486Z,43.63
2018-10-17T04:39:31.556Z,44.43
2018-10-17T04:42:00.622Z,44.80
2018-10-17T04:44:29.737Z,46.20
2018-10-17T04:46:58.929Z,45.97
2018-10-17T04:49:28.031Z,45.50
2018-10-17T04:51:57.160Z,44.63
2018-10-17T04:54:57.624Z,46.00
2018-10-17T04:57:26.854Z,44.93
2018-10-17T04:59:56.131Z,43.53
2018-10-17T05:02:25.633Z,47.17
2018-10-17T05:04:54.708Z,48.30
2018-10-17T05:07:47.794Z,46.87
2018-10-17T05:10:16.884Z,49.30
2018-10-17T05:12:46.011Z,50.57
2018-10-17T05:15:15.215Z,49.20
2018-10-17T05:17:44.298Z,49.17
2018-10-17T05:20:13.549Z,51.93
2018-10-17T05:25:38.169Z,52.07
2018-10-17T05:28:07.390Z,47.63
2018-10-17T05:30:36.871Z,50.17
2018-10-17T05:33:06.517Z,50.37
2018-10-17T05:35:35.703Z,49.90
2018-10-17T05:38:08.875Z,48.53
2018-10-17T05:40:38.163Z,50.30
2018-10-17T05:43:07.415Z,50.10
2018-10-17T05:45:36.590Z,49.07
2018-10-17T05:48:18.684Z,47.93
2018-10-17T05:51:16.915Z,47.27
2018-10-17T05:53:48.011Z,47.83
2018-10-17T05:56:18.899Z,44.87
2018-10-17T05:58:47.967Z,50.10
2018-10-17T06:01:22.946Z,49.87
2018-10-17T06:03:52.133Z,46.60
2018-10-17T06:09:02.317Z,46.43
2018-10-17T06:11:50.896Z,48.70
2018-10-17T06:14:20.412Z,45.17
2018-10-17T06:16:49.593Z,49.40
2018-10-17T06:19:18.627Z,46.67
2018-10-17T06:21:47.904Z,50.10
2018-10-17T06:24:17.556Z,49.33
2018-10-17T06:26:46.796Z,50.70
2018-10-17T06:29:15.952Z,51.20
2018-10-17T06:31:45.124Z,48.37
2018-10-17T06:34:14.259Z,49.00
2018-10-17T06:36:43.291Z,50.97
2018-10-17T06:39:35.423Z,46.80
2018-10-17T06:45:15.038Z,48.13
2018-10-17T06:47:44.148Z,48.17
2018-10-17T06:50:27.526Z,50.87
2018-10-17T06:52:56.675Z,49.00
2018-10-17T06:55:25.980Z,48.40
2018-10-17T07:11:41.063Z,61.90
2018-10-17T07:14:10.960Z,46.00
2018-10-17T07:16:40.132Z,45.03
2018-10-17T07:19:32.640Z,45.27
2018-10-17T07:25:32.093Z,48.40
2018-10-17T07:28:07.868Z,44.70
2018-10-17T07:30:51.730Z,46.97
2018-10-17T07:33:20.929Z,43.70
2018-10-17T07:35:53.649Z,44.93
2018-10-17T07:38:24.482Z,45.47
2018-10-17T07:43:49.418Z,43.57
2018-10-17T07:46:27.280Z,42.40
2018-10-17T07:51:57.946Z,38.70
2018-10-17T07:54:27.904Z,41.67
2018-10-17T08:02:51.163Z,41.40
2018-10-17T08:06:07.060Z,39.13
2018-10-17T08:12:38.559Z,39.53
2018-10-17T08:15:08.802Z,37.27
2018-10-17T08:17:38.719Z,36.20
2018-10-17T08:20:12.400Z,37.27
2018-10-17T08:22:44.936Z,34.73
2018-10-17T08:25:17.569Z,32.17
2018-10-17T08:28:01.631Z,30.67
2018-10-17T08:30:31.438Z,32.47
2018-10-17T08:33:05.757Z,33.30
2018-10-17T08:35:36.047Z,31.50
2018-10-17T08:38:05.381Z,32.27
2018-10-17T08:40:41.536Z,31.80
2018-10-17T08:43:33.154Z,30.60
2018-10-17T08:46:02.492Z,30.17
2018-10-17T08:48:33.687Z,30.83
2018-10-17T08:51:04.737Z,30.73
2018-10-17T09:03:18.777Z,29.50
2018-10-17T09:14:56.469Z,32.10
2018-10-17T09:23:28.745Z,35.00
2018-10-17T09:25:58.217Z,35.97
2018-10-17T09:28:27.537Z,36.77
2018-10-17T09:30:56.876Z,35.17
2018-10-17T09:33:26.339Z,35.33
2018-10-17T09:35:55.518Z,32.97
2018-10-17T09:38:25.151Z,34.37
2018-10-17T09:41:12.141Z,34.80
2018-10-17T09:43:41.472Z,30.77
2018-10-17T09:46:10.756Z,30.70
2018-10-17T09:48:40.045Z,31.20
2018-10-17T09:51:13.597Z,32.47
2018-10-17T09:53:42.843Z,29.53
2018-10-17T09:56:12.753Z,29.50
2018-10-17T09:58:41.963Z,30.33
2018-10-17T10:01:20.399Z,27.70
2018-10-17T10:06:49.552Z,29.30
2018-10-17T10:09:18.757Z,29.10
2018-10-17T10:11:48.055Z,26.90
2018-10-17T10:14:17.543Z,28.20
2018-10-17T10:16:50.044Z,26.13
2018-10-17T10:19:19.297Z,26.57
2018-10-17T10:21:49.251Z,26.63
2018-10-17T10:24:19.810Z,27.33
2018-10-17T10:26:49.091Z,26.93
2018-10-17T10:29:18.397Z,24.63
2018-10-17T10:31:47.941Z,22.00
2018-10-17T10:34:17.727Z,24.33
2018-10-17T10:36:46.949Z,22.50
2018-10-17T10:39:16.276Z,22.90
2018-10-17T10:41:45.369Z,21.63
2018-10-17T10:44:14.528Z,23.43
2018-10-17T10:46:43.902Z,23.87
2018-10-17T10:49:13.069Z,23.17
2018-10-17T10:51:42.320Z,22.43
2018-10-17T10:54:11.547Z,22.03
2018-10-17T10:56:40.586Z,21.97
2018-10-17T10:59:10.229Z,19.13
2018-10-17T11:01:39.301Z,20.37
2018-10-17T11:04:08.803Z,19.50
2018-10-17T11:06:53.381Z,18.10
2018-10-17T11:09:22.581Z,16.80
2018-10-17T11:11:51.802Z,16.47
2018-10-17T11:14:21.470Z,16.53
2018-10-17T11:16:50.532Z,17.07
2018-10-17T11:19:19.713Z,16.33
2018-10-17T11:21:48.940Z,14.33
2018-10-17T11:24:17.951Z,15.20
2018-10-17T11:26:47.209Z,13.70
2018-10-17T11:29:16.423Z,14.00
2018-10-17T11:31:45.577Z,13.33
2018-10-17T11:34:14.871Z,11.83
2018-10-17T11:36:43.946Z,12.10
2018-10-17T11:39:13.336Z,12.20
2018-10-17T11:41:42.450Z,12.60
2018-10-17T11:44:11.524Z,12.40
2018-10-17T11:46:40.675Z,12.70
2018-10-17T11:49:09.837Z,13.83
2018-10-17T11:51:39.178Z,11.03
2018-10-17T11:54:08.400Z,11.80
2018-10-17T11:56:37.628Z,13.13
2018-10-17T11:59:07.413Z,12.83
2018-10-17T12:01:37.036Z,11.47
2018-10-17T12:04:06.944Z,11.20
2018-10-17T12:06:36.291Z,10.70
2018-10-17T12:09:08.662Z,10.70
2018-10-17T12:11:39.459Z,12.50
2018-10-17T12:14:09.030Z,11.50
2018-10-17T12:16:38.746Z,11.37
2018-10-17T12:19:08.315Z,11.97
2018-10-17T12:21:37.860Z,11.73
2018-10-17T12:24:07.284Z,11.47
2018-10-17T12:26:37.264Z,10.70
2018-10-17T12:32:07.173Z,13.17
2018-10-17T12:34:46.923Z,9.90
2018-10-17T12:38:10.441Z,11.23
2018-10-17T12:41:05.646Z,11.03
2018-10-17T12:43:34.628Z,10.93
2018-10-17T12:46:04.133Z,11.57
2018-10-17T12:48:55.554Z,11.37
2018-10-17T12:51:24.919Z,9.73
2018-10-17T12:53:54.106Z,11.30
2018-10-17T12:56:23.364Z,11.00
2018-10-17T12:58:52.588Z,11.87
2018-10-17T13:01:21.587Z,11.67
2018-10-17T13:06:46.543Z,11.07
2018-10-17T13:09:37.690Z,9.63
2018-10-17T13:12:07.104Z,10.20
2018-10-17T13:14:36.151Z,9.30
2018-10-17T13:19:52.041Z,9.73
2018-10-17T13:22:21.300Z,9.93
2018-10-17T13:24:50.366Z,9.90
2018-10-17T13:27:19.822Z,10.80
2018-10-17T13:29:51.904Z,9.93
2018-10-17T13:32:34.022Z,9.33
2018-10-17T13:35:09.715Z,10.03
2018-10-17T13:37:45.458Z,9.63
2018-10-17T13:40:15.322Z,11.40
2018-10-17T13:42:51.343Z,10.40
2018-10-17T13:45:21.086Z,9.97
2018-10-17T13:47:50.483Z,11.00
2018-10-17T13:50:19.746Z,9.80
2018-10-17T13:52:48.792Z,9.67
2018-10-17T13:55:18.189Z,8.83
2018-10-17T13:57:47.306Z,10.97
2018-10-17T14:00:16.515Z,9.83
2018-10-17T14:02:45.780Z,9.70
2018-10-17T14:05:15.209Z,9.67
2018-10-17T14:07:44.433Z,9.30
2018-10-17T14:10:13.498Z,9.30
2018-10-17T14:12:42.815Z,9.27
2018-10-17T14:15:12.026Z,9.80
2018-10-17T14:17:40.961Z,10.10
2018-10-17T14:20:10.297Z,8.30
2018-10-17T14:22:39.339Z,9.70
2018-10-17T14:25:08.519Z,9.00
2018-10-17T14:27:37.725Z,7.97
2018-10-17T14:30:08.110Z,8.53
2018-10-17T14:32:37.614Z,9.80
2018-10-17T14:35:10.365Z,8.43
2018-10-17T14:37:39.803Z,10.10
2018-10-17T14:40:09.027Z,9.83
2018-10-17T14:42:38.553Z,8.90
2018-10-17T14:45:10.292Z,10.00
2018-10-17T14:47:39.849Z,8.13
2018-10-17T14:50:08.994Z,9.30
2018-10-17T14:53:01.177Z,10.80
2018-10-17T14:55:30.532Z,9.60
2018-10-17T14:58:00.588Z,9.63
2018-10-17T15:00:35.241Z,8.60
2018-10-17T15:03:05.848Z,8.50
2018-10-17T15:08:41.100Z,9.47
2018-10-17T15:11:23.590Z,9.20
2018-10-17T15:13:53.005Z,9.50
2018-10-17T15:16:22.226Z,10.20
2018-10-17T15:18:53.161Z,9.70
2018-10-17T15:21:22.839Z,9.87
2018-10-17T15:23:51.898Z,9.60
2018-10-17T15:26:20.964Z,9.93
2018-10-17T15:28:52.243Z,10.73
2018-10-17T15:31:22.393Z,11.37
2018-10-17T15:33:51.565Z,9.57
2018-10-17T15:36:21.883Z,10.97
2018-10-17T15:38:51.148Z,12.00
2018-10-17T15:41:20.293Z,11.00
2018-10-17T15:43:50.464Z,11.13
2018-10-17T15:46:20.125Z,12.50
2018-10-17T15:48:49.400Z,11.50
2018-10-17T15:51:18.757Z,12.23
2018-10-17T15:53:47.955Z,10.90
2018-10-17T15:56:17.400Z,10.97
2018-10-17T15:58:46.624Z,11.50
2018-10-17T16:01:15.872Z,13.60
2018-10-17T16:03:45.130Z,14.77
2018-10-17T16:06:14.695Z,13.70
2018-10-17T16:08:43.852Z,14.57
2018-10-17T16:11:13.012Z,14.43
2018-10-17T16:13:42.566Z,15.70
2018-10-17T16:16:11.750Z,14.50
2018-10-17T16:18:41.717Z,14.40
2018-10-17T16:21:10.979Z,14.27
2018-10-17T16:23:40.077Z,14.33
2018-10-17T16:26:09.440Z,15.20
2018-10-17T16:28:38.551Z,16.50
2018-10-17T16:31:07.984Z,15.77
2018-10-17T16:33:37.092Z,14.77
2018-10-17T16:36:06.807Z,15.47
2018-10-17T16:38:35.943Z,13.60
2018-10-17T16:41:05.451Z,15.40
2018-10-17T16:43:34.607Z,16.10
2018-10-17T16:46:03.791Z,16.40
2018-10-17T16:48:33.197Z,15.90
2018-10-17T16:51:10.229Z,16.57
2018-10-17T16:53:39.719Z,16.30
2018-10-17T16:56:09.303Z,20.00
2018-10-17T16:58:38.681Z,17.80
2018-10-17T17:01:08.881Z,17.30
2018-10-17T17:03:37.991Z,17.47
2018-10-17T17:06:07.164Z,17.33
2018-10-17T17:08:36.725Z,19.97
2018-10-17T17:14:41.161Z,18.30
2018-10-17T17:17:10.571Z,17.53
2018-10-17T17:19:39.714Z,18.03
2018-10-17T17:23:27.121Z,19.23
2018-10-17T17:26:35.349Z,22.03
2018-10-17T17:29:29.753Z,20.83
2018-10-17T17:37:49.005Z,26.27
2018-10-17T17:40:18.463Z,27.23
2018-10-17T17:42:47.731Z,30.47
2018-10-17T17:45:17.181Z,33.93
2018-10-17T17:47:46.905Z,35.83
2018-10-17T17:50:16.061Z,35.77
2018-10-17T17:52:48.717Z,38.67
2018-10-17T17:55:18.026Z,40.37
2018-10-17T17:57:47.387Z,40.40
2018-10-17T18:00:16.808Z,42.40
2018-10-17T18:02:46.221Z,44.13
2018-10-17T18:05:15.621Z,46.10
2018-10-17T18:07:45.249Z,46.53
2018-10-17T18:10:14.769Z,48.43
2018-10-17T18:12:44.033Z,49.60
2018-10-17T18:15:13.344Z,49.57
2018-10-17T18:17:42.530Z,50.63
2018-10-17T18:20:11.919Z,49.70
2018-10-17T18:23:10.144Z,51.57
2018-10-17T18:26:28.890Z,51.07
2018-10-17T18:28:58.034Z,53.47
2018-10-17T18:32:19.433Z,55.57
2018-10-17T18:38:07.766Z,57.00
2018-10-17T18:40:38.293Z,57.33
2018-10-17T18:43:14.369Z,58.67
2018-10-17T18:45:43.702Z,58.80
2018-10-17T18:48:12.867Z,58.90
2018-10-17T18:50:43.314Z,59.53
2018-10-17T19:13:19.426Z,65.10
2018-10-17T19:15:48.665Z,62.87
2018-10-17T19:18:18.045Z,67.73
2018-10-17T19:20:49.056Z,69.07
2018-10-17T19:23:18.487Z,69.17
2018-10-17T19:26:36.756Z,69.30
2018-10-17T19:32:14.041Z,66.97
2018-10-17T19:34:43.215Z,71.90
2018-10-17T19:37:49.321Z,72.45
2018-10-17T19:40:19.400Z,67.40
2018-10-17T19:42:51.003Z,70.53
2018-10-17T19:45:20.810Z,72.53
2018-10-17T19:47:50.207Z,72.97
2018-10-17T19:50:20.426Z,71.67
2018-10-17T19:52:49.785Z,75.20
2018-10-17T19:55:20.110Z,76.27
2018-10-17T19:58:18.235Z,74.10
2018-10-17T20:00:53.387Z,73.10
2018-10-17T20:03:25.360Z,71.30
2018-10-17T20:06:34.151Z,75.63
2018-10-17T20:09:04.955Z,76.93
2018-10-17T20:11:51.767Z,79.70
2018-10-17T20:14:21.097Z,79.30
2018-10-17T20:51:30.036Z,78.05
2018-10-17T20:54:02.832Z,81.37
2018-10-17T20:56:32.100Z,78.17
2018-10-17T20:59:01.482Z,88.67
2018-10-17T21:15:21.600Z,82.02
2018-10-17T21:17:50.742Z,89.87
2018-10-17T21:20:19.931Z,91.50
2018-10-17T21:22:49.063Z,95.53
2018-10-17T21:25:18.307Z,88.80
2018-10-17T21:28:05.698Z,92.50
2018-10-17T21:30:34.909Z,93.57
2018-10-17T21:33:05.425Z,93.20
2018-10-17T21:35:34.529Z,94.17
2018-10-17T21:38:03.824Z,94.80
2018-10-17T21:40:33.215Z,89.47
2018-10-17T21:43:02.574Z,103.00
2018-10-17T21:45:32.275Z,96.43
2018-10-17T21:48:09.105Z,98.37
2018-10-17T21:50:38.367Z,88.00
2018-10-17T21:53:07.833Z,95.10
2018-10-17T21:55:38.452Z,94.40
2018-10-17T21:58:39.231Z,97.40
2018-10-17T22:01:08.887Z,87.67
2018-10-17T22:03:38.352Z,92.23
2018-10-17T22:06:14.544Z,83.70
2018-10-17T22:08:43.994Z,93.87
2018-10-17T22:11:13.305Z,91.60
2018-10-17T22:13:42.581Z,92.70
2018-10-17T22:16:12.516Z,92.20
2018-10-17T22:18:41.805Z,82.43
2018-10-17T22:21:11.162Z,81.80
2018-10-17T22:23:40.471Z,94.13
2018-10-17T22:27:02.416Z,83.17
2018-10-17T22:29:31.806Z,86.33
2018-10-17T22:32:01.303Z,82.30
2018-10-17T22:34:30.675Z,83.90
2018-10-17T22:36:59.857Z,81.40
2018-10-17T22:39:29.145Z,82.70
2018-10-17T22:41:58.491Z,85.77
2018-10-17T22:44:30.891Z,82.47
2018-10-17T22:47:01.005Z,82.97
2018-10-17T22:49:30.258Z,83.43
2018-10-17T22:51:59.602Z,82.10
2018-10-17T22:54:29.819Z,87.67
2018-10-17T22:56:59.231Z,82.77
2018-10-17T22:59:28.541Z,83.00
2018-10-17T23:01:58.862Z,84.73
2018-10-17T23:04:28.238Z,82.40
2018-10-17T23:07:24.679Z,75.73
2018-10-17T23:09:54.076Z,75.77
2018-10-17T23:12:23.535Z,81.30
2018-10-17T23:14:53.052Z,77.30
2018-10-17T23:20:40.992Z,72.27
2018-10-17T23:23:10.307Z,70.70
2018-10-17T23:25:39.489Z,71.47
2018-10-17T23:28:15.521Z,71.17
2018-10-17T23:30:44.805Z,68.80
2018-10-17T23:33:13.941Z,71.90
2018-10-17T23:35:43.233Z,69.77
2018-10-17T23:38:12.578Z,64.60
2018-10-17T23:40:41.951Z,61.67
2018-10-17T23:43:26.889Z,61.73
2018-10-17T23:45:56.249Z,60.50
2018-10-17T23:48:57.402Z,60.60
2018-10-17T23:51:26.834Z,62.13
2018-10-17T23:53:56.368Z,64.43
2018-10-17T23:56:25.846Z,61.60
2018-10-17T23:58:56.974Z,64.83
